Prudentia — PB4900 — position and weather

sailwx.info

Track history (hours):
 
Tides and Currents Weather Stations Pressure Air Temp Water Temp Dewpoint Dewpoint Depression Visibility Wind Speed Wind Dir Waves Ship Positions

Prudentia

Last reported at 2017-Mar-23 19:32 UTC. Time now 2017-Mar-24 00:18 UTC.
Position N 51°08' E 003°20'.

Length 70 m; draft 1.8 m.

Type: Ship. MMSI: 244660779.

Date/timePositionNaut miles runAvg speedWind from/ knotsBaromVisibWave heightAir tempDewpointWater temp
2017-Mar-23 19:32N 51°08' E 003°20'7 2.5
2017-Mar-23 16:32N 51°06' E 003°31'5 4.9
2017-Mar-23 15:33N 51°06' E 003°39'2 1.6
2017-Mar-23 14:33N 51°06' E 003°41'6 5.7
2017-Mar-23 13:33N 51°10' E 003°47'36 4.4
2017-Mar-23 05:16N 51°40' E 004°21'2 0.3
2017-Mar-22 21:16N 51°41' E 004°24'2 1.3
2017-Mar-22 19:32N 51°42' E 004°27'7 6.8
2017-Mar-22 18:29N 51°45' E 004°38'5 5.5
2017-Mar-22 17:33N 51°49' E 004°34'6 5.8
2017-Mar-22 16:33N 51°51' E 004°24'5 5.3
2017-Mar-22 15:33N 51°54' E 004°18'5 5.3
2017-Mar-22 14:33N 51°57' E 004°10'2 1.8
2017-Mar-22 13:33N 51°57' E 004°08'0 0.0
2017-Mar-22 12:33N 51°57' E 004°08'0 0.0
2017-Mar-22 11:33N 51°57' E 004°08'0 0.0
2017-Mar-22 10:33N 51°57' E 004°08'0 0.0
2017-Mar-22 09:33N 51°57' E 004°08'1 0.8
2017-Mar-22 08:33N 51°58' E 004°08'7 7.1
2017-Mar-22 07:33N 51°54' E 004°17'7 7.2
2017-Mar-22 06:33N 51°54' E 004°29'0 0.0
2017-Mar-22 05:33N 51°54' E 004°29'0 0.0
2017-Mar-22 04:33N 51°54' E 004°29'0 0.0
2017-Mar-22 03:33N 51°54' E 004°29'0 0.0
2017-Mar-22 02:33N 51°54' E 004°29'0 0.0
2017-Mar-22 01:33N 51°54' E 004°29'0 0.0
2017-Mar-22 00:33N 51°54' E 004°29'0 0.0
2017-Mar-21 23:33N 51°54' E 004°29'0 0.0
2017-Mar-21 22:33N 51°54' E 004°29'0 0.0
2017-Mar-21 21:33N 51°54' E 004°29'0 0.0
2017-Mar-21 20:33N 51°54' E 004°29'0 0.1
2017-Mar-21 19:33N 51°54' E 004°29'6 5.5
2017-Mar-21 18:33N 51°53' E 004°38'8 8.1
2017-Mar-21 17:33N 51°49' E 004°49'20 9.8
2017-Mar-21 15:33N 51°48' E 005°21'10 9.8
2017-Mar-21 14:30N 51°54' E 005°35'1010.3
2017-Mar-21 13:33N 51°52' E 005°50'1 1.0
2017-Mar-21 12:33N 51°51' E 005°51'7 6.9
2017-Mar-21 11:33N 51°53' E 006°02'5 4.9
2017-Mar-21 10:33N 51°57' E 005°58'4 3.8
2017-Mar-21 09:33N 51°60' E 006°01'3 3.1
2017-Mar-21 08:33N 51°60' E 006°06'4 4.3
2017-Mar-21 07:33N 52°04' E 006°08'4 4.0
2017-Mar-21 06:33N 52°07' E 006°13'2 2.1
2017-Mar-21 05:33N 52°08' E 006°11'0 0.0
2017-Mar-21 04:33N 52°08' E 006°11'0 0.0
2017-Mar-21 03:33N 52°08' E 006°11'0 0.0
2017-Mar-21 02:33N 52°08' E 006°11'0 0.0
2017-Mar-21 01:33N 52°08' E 006°11'0 0.0
2017-Mar-21 00:33N 52°08' E 006°11'0 0.0
2017-Mar-20 23:33N 52°08' E 006°11'0 0.0
2017-Mar-20 22:33N 52°08' E 006°11'0 0.0
2017-Mar-20 21:33N 52°08' E 006°11'0 0.0
2017-Mar-20 20:33N 52°08' E 006°11'0 0.0
2017-Mar-20 19:33N 52°08' E 006°11'0 0.0
2017-Mar-20 18:33N 52°08' E 006°11'1 1.3
2017-Mar-20 17:33N 52°10' E 006°11'3 3.5
2017-Mar-20 16:34N 52°10' E 006°17'8 7.2
2017-Mar-20 15:31N 52°11' E 006°29'7 6.8
2017-Mar-20 14:33N 52°14' E 006°38'6 6.2
2017-Mar-20 13:33N 52°20' E 006°37'2 1.6
2017-Mar-20 12:33N 52°22' E 006°37'0 0.0
2017-Mar-20 11:33N 52°22' E 006°37'0 0.0
2017-Mar-20 10:33N 52°22' E 006°37'0 0.0
2017-Mar-20 09:33N 52°22' E 006°37'0 0.0
2017-Mar-20 08:33N 52°22' E 006°37'0 0.0
2017-Mar-20 07:33N 52°22' E 006°37'0 0.0
2017-Mar-20 03:13N 52°22' E 006°37'0 0.0
2017-Mar-20 02:33N 52°22' E 006°37'0 0.0
2017-Mar-20 01:33N 52°22' E 006°37'0 0.0
2017-Mar-20 00:33N 52°22' E 006°37'0 0.0
2017-Mar-19 23:33N 52°22' E 006°37'0 0.0
2017-Mar-19 22:33N 52°22' E 006°37'0 0.0
2017-Mar-19 21:33N 52°22' E 006°37'0 0.0
2017-Mar-19 20:33N 52°22' E 006°37'0 0.0
2017-Mar-19 19:33N 52°22' E 006°37'0 0.0
2017-Mar-19 18:33N 52°22' E 006°37'0 0.0
2017-Mar-19 17:33N 52°22' E 006°37'0 0.0
2017-Mar-19 16:33N 52°22' E 006°37'0 0.0
2017-Mar-19 15:33N 52°22' E 006°37'0 0.0
2017-Mar-19 14:33N 52°22' E 006°37'0 0.0
2017-Mar-19 13:33N 52°22' E 006°37'0 0.0
2017-Mar-19 12:33N 52°22' E 006°37'0 0.0
2017-Mar-19 07:16N 52°22' E 006°37'0 0.0
2017-Mar-19 06:33N 52°22' E 006°37'0 0.0
2017-Mar-19 05:33N 52°22' E 006°37'0 0.0
2017-Mar-19 04:33N 52°22' E 006°37'0 0.0
2017-Mar-19 03:33N 52°22' E 006°37'0 0.0
2017-Mar-19 02:33N 52°22' E 006°37'0 0.0
2017-Mar-19 01:33N 52°22' E 006°37'0 0.0
2017-Mar-19 00:33N 52°22' E 006°37'0 0.0
2017-Mar-18 23:33N 52°22' E 006°37'0 0.0
2017-Mar-18 22:33N 52°22' E 006°37'0 0.0
2017-Mar-18 21:34N 52°22' E 006°37'0 0.0
2017-Mar-18 20:33N 52°22' E 006°37'0 0.0
2017-Mar-18 19:33N 52°22' E 006°37'0 0.0
2017-Mar-18 18:33N 52°22' E 006°37'0 0.0
2017-Mar-18 17:33N 52°22' E 006°37'0 0.0
2017-Mar-18 16:33N 52°22' E 006°37'0 0.0
2017-Mar-18 15:33N 52°22' E 006°37'0 0.0
2017-Mar-18 14:34N 52°22' E 006°37'0 0.0
2017-Mar-18 13:33N 52°22' E 006°37'0 0.0
2017-Mar-18 12:33N 52°22' E 006°37'0 0.0
2017-Mar-18 11:33N 52°22' E 006°37'0 0.0
2017-Mar-18 10:33N 52°22' E 006°37'0 0.0
2017-Mar-18 09:33N 52°22' E 006°37'3 3.0
2017-Mar-18 08:33N 52°19' E 006°38'5 4.8
2017-Mar-18 07:33N 52°14' E 006°38'6 5.7
2017-Mar-18 06:31N 52°11' E 006°30'5 5.5
2017-Mar-18 05:33N 52°10' E 006°21'4 3.8
2017-Mar-18 04:33N 52°10' E 006°15'0 0.0
2017-Mar-18 03:32N 52°10' E 006°15'0 0.0
2017-Mar-18 02:33N 52°10' E 006°15'0 0.0
2017-Mar-18 01:33N 52°10' E 006°15'0 0.0
2017-Mar-18 00:33N 52°10' E 006°15'0 0.0
2017-Mar-17 23:33N 52°10' E 006°15'0 0.0
2017-Mar-17 22:33N 52°10' E 006°15'4 1.0
2017-Mar-17 18:32N 52°06' E 006°13'6 6.0
2017-Mar-17 17:33N 52°01' E 006°08'6 5.8
2017-Mar-17 16:33N 51°58' E 005°59'7 6.5
2017-Mar-17 15:33N 51°52' E 006°03'4 3.7
2017-Mar-17 14:33N 51°52' E 005°57'4 3.5
2017-Mar-17 13:33N 51°51' E 005°51'0 0.0
2017-Mar-17 12:33N 51°51' E 005°51'0 0.0
2017-Mar-17 11:33N 51°51' E 005°51'0 0.1
2017-Mar-17 10:33N 51°51' E 005°51'5 4.5
2017-Mar-17 09:33N 51°53' E 005°45'5 5.2
2017-Mar-17 08:33N 51°54' E 005°36'6 5.0
2017-Mar-17 07:24N 51°53' E 005°27'16 1.2
2017-Mar-16 18:26N 51°49' E 005°02'5 5.3
2017-Mar-16 17:33N 51°50' E 004°55'6 5.5
2017-Mar-16 16:34N 51°48' E 004°46'6 6.0
2017-Mar-16 15:33N 51°43' E 004°40'29 4.1
2017-Mar-16 08:33N 51°17' E 004°22'0 0.0
2017-Mar-16 07:33N 51°17' E 004°22'0 0.0
2017-Mar-16 06:34N 51°17' E 004°22'0 0.0
2017-Mar-16 05:33N 51°17' E 004°22'0 0.0
2017-Mar-16 04:34N 51°17' E 004°22'0 0.0
2017-Mar-16 03:34N 51°17' E 004°22'0 0.0
2017-Mar-16 02:33N 51°17' E 004°22'0 0.0
2017-Mar-16 01:33N 51°17' E 004°22'0 0.0
2017-Mar-16 00:34N 51°17' E 004°22'0 0.0
2017-Mar-15 23:34N 51°17' E 004°22'0 0.0
2017-Mar-15 22:33N 51°17' E 004°22'0 0.0
2017-Mar-15 21:34N 51°17' E 004°22'0 0.0
2017-Mar-15 20:33N 51°17' E 004°22'0 0.0
2017-Mar-15 19:34N 51°17' E 004°22'0 0.0
2017-Mar-15 18:33N 51°17' E 004°22'0 0.0
2017-Mar-15 17:33N 51°17' E 004°22'0 0.1
2017-Mar-15 16:34N 51°17' E 004°22'0 0.0
2017-Mar-15 15:34N 51°17' E 004°22'0 0.0
2017-Mar-15 14:33N 51°17' E 004°22'0 0.0
2017-Mar-15 13:33N 51°17' E 004°22'3 3.3
2017-Mar-15 12:32N 51°20' E 004°18'8 7.3
2017-Mar-15 11:27N 51°27' E 004°14'5 5.5
2017-Mar-15 10:32N 51°32' E 004°14'9 6.7
2017-Mar-15 09:15N 51°40' E 004°20'4 4.6
2017-Mar-15 08:24N 51°42' E 004°25'7 7.4
2017-Mar-15 07:31N 51°43' E 004°36'9 9.4
2017-Mar-15 06:33N 51°52' E 004°39'7 6.6
2017-Mar-15 05:33N 51°55' E 004°48'8 8.1
2017-Mar-15 04:33N 51°59' E 004°60'5 4.5
2017-Mar-15 03:33N 52°01' E 005°06'0 0.0
2017-Mar-15 02:33N 52°01' E 005°06'0 0.0
2017-Mar-15 01:33N 52°01' E 005°06'0 0.0
2017-Mar-15 00:33N 52°01' E 005°06'0 0.0
2017-Mar-14 23:33N 52°01' E 005°06'0 0.0
2017-Mar-14 22:33N 52°01' E 005°06'0 0.0
2017-Mar-14 21:33N 52°01' E 005°06'0 0.4
2017-Mar-14 20:33N 52°01' E 005°07'5 4.7
2017-Mar-14 19:33N 52°05' E 005°05'8 7.8
2017-Mar-14 18:33N 52°13' E 005°00'8 8.1
2017-Mar-14 17:33N 52°21' E 004°59'2 2.2
2017-Mar-14 16:34N 52°23' E 004°58'7 6.6
2017-Mar-14 15:33N 52°25' E 005°08'14 7.1
2017-Mar-14 13:33N 52°33' E 005°27'8 8.1
2017-Mar-14 12:33N 52°37' E 005°39'7 7.4
2017-Mar-14 11:33N 52°37' E 005°51'8 7.6
2017-Mar-14 10:33N 52°38' E 006°03'3 3.0
2017-Mar-14 09:33N 52°35' E 006°06'0 0.0
2017-Mar-14 08:33N 52°35' E 006°06'0 0.0
2017-Mar-14 07:33N 52°35' E 006°06'0 0.0
2017-Mar-14 06:33N 52°35' E 006°06'0 0.0
2017-Mar-14 05:33N 52°35' E 006°06'0 0.0
2017-Mar-14 04:33N 52°35' E 006°06'0 0.0
2017-Mar-14 03:33N 52°35' E 006°06'0 0.0
2017-Mar-14 02:32N 52°35' E 006°06'0 0.0
2017-Mar-14 01:33N 52°35' E 006°06'0 0.0
2017-Mar-14 00:33N 52°35' E 006°06'0 0.0
2017-Mar-13 23:33N 52°35' E 006°06'0 0.0
2017-Mar-13 22:33N 52°35' E 006°06'0 0.0
2017-Mar-13 21:33N 52°35' E 006°06'0 0.0
2017-Mar-13 20:33N 52°35' E 006°06'0 0.0
2017-Mar-13 19:33N 52°35' E 006°06'  
Track history (hours):
 
Tides and Currents Weather Stations Pressure Air Temp Water Temp Dewpoint Dewpoint Depression Visibility Wind Speed Wind Dir Waves Ship Positions

Prudentia

Last reported at 2017-Mar-23 19:32 UTC. Time now 2017-Mar-24 00:18 UTC.
Position N 51°08' E 003°20'.

Length 70 m; draft 1.8 m.

Type: Ship. MMSI: 244660779.

Date/timePositionNaut miles runAvg speedWind from/ knotsBaromVisibWave heightAir tempDewpointWater temp
2017-Mar-23 19:32N 51°08' E 003°20'7 2.5
2017-Mar-23 16:32N 51°06' E 003°31'5 4.9
2017-Mar-23 15:33N 51°06' E 003°39'2 1.6
2017-Mar-23 14:33N 51°06' E 003°41'6 5.7
2017-Mar-23 13:33N 51°10' E 003°47'36 4.4
2017-Mar-23 05:16N 51°40' E 004°21'2 0.3
2017-Mar-22 21:16N 51°41' E 004°24'2 1.3
2017-Mar-22 19:32N 51°42' E 004°27'7 6.8
2017-Mar-22 18:29N 51°45' E 004°38'5 5.5
2017-Mar-22 17:33N 51°49' E 004°34'6 5.8
2017-Mar-22 16:33N 51°51' E 004°24'5 5.3
2017-Mar-22 15:33N 51°54' E 004°18'5 5.3
2017-Mar-22 14:33N 51°57' E 004°10'2 1.8
2017-Mar-22 13:33N 51°57' E 004°08'0 0.0
2017-Mar-22 12:33N 51°57' E 004°08'0 0.0
2017-Mar-22 11:33N 51°57' E 004°08'0 0.0
2017-Mar-22 10:33N 51°57' E 004°08'0 0.0
2017-Mar-22 09:33N 51°57' E 004°08'1 0.8
2017-Mar-22 08:33N 51°58' E 004°08'7 7.1
2017-Mar-22 07:33N 51°54' E 004°17'7 7.2
2017-Mar-22 06:33N 51°54' E 004°29'0 0.0
2017-Mar-22 05:33N 51°54' E 004°29'0 0.0
2017-Mar-22 04:33N 51°54' E 004°29'0 0.0
2017-Mar-22 03:33N 51°54' E 004°29'0 0.0
2017-Mar-22 02:33N 51°54' E 004°29'0 0.0
2017-Mar-22 01:33N 51°54' E 004°29'0 0.0
2017-Mar-22 00:33N 51°54' E 004°29'0 0.0
2017-Mar-21 23:33N 51°54' E 004°29'0 0.0
2017-Mar-21 22:33N 51°54' E 004°29'0 0.0
2017-Mar-21 21:33N 51°54' E 004°29'0 0.0
2017-Mar-21 20:33N 51°54' E 004°29'0 0.1
2017-Mar-21 19:33N 51°54' E 004°29'6 5.5
2017-Mar-21 18:33N 51°53' E 004°38'8 8.1
2017-Mar-21 17:33N 51°49' E 004°49'20 9.8
2017-Mar-21 15:33N 51°48' E 005°21'10 9.8
2017-Mar-21 14:30N 51°54' E 005°35'1010.3
2017-Mar-21 13:33N 51°52' E 005°50'1 1.0
2017-Mar-21 12:33N 51°51' E 005°51'7 6.9
2017-Mar-21 11:33N 51°53' E 006°02'5 4.9
2017-Mar-21 10:33N 51°57' E 005°58'4 3.8
2017-Mar-21 09:33N 51°60' E 006°01'3 3.1
2017-Mar-21 08:33N 51°60' E 006°06'4 4.3
2017-Mar-21 07:33N 52°04' E 006°08'4 4.0
2017-Mar-21 06:33N 52°07' E 006°13'2 2.1
2017-Mar-21 05:33N 52°08' E 006°11'0 0.0
2017-Mar-21 04:33N 52°08' E 006°11'0 0.0
2017-Mar-21 03:33N 52°08' E 006°11'0 0.0
2017-Mar-21 02:33N 52°08' E 006°11'0 0.0
2017-Mar-21 01:33N 52°08' E 006°11'0 0.0
2017-Mar-21 00:33N 52°08' E 006°11'0 0.0
2017-Mar-20 23:33N 52°08' E 006°11'0 0.0
2017-Mar-20 22:33N 52°08' E 006°11'0 0.0
2017-Mar-20 21:33N 52°08' E 006°11'0 0.0
2017-Mar-20 20:33N 52°08' E 006°11'0 0.0
2017-Mar-20 19:33N 52°08' E 006°11'0 0.0
2017-Mar-20 18:33N 52°08' E 006°11'1 1.3
2017-Mar-20 17:33N 52°10' E 006°11'3 3.5
2017-Mar-20 16:34N 52°10' E 006°17'8 7.2
2017-Mar-20 15:31N 52°11' E 006°29'7 6.8
2017-Mar-20 14:33N 52°14' E 006°38'6 6.2
2017-Mar-20 13:33N 52°20' E 006°37'2 1.6
2017-Mar-20 12:33N 52°22' E 006°37'0 0.0
2017-Mar-20 11:33N 52°22' E 006°37'0 0.0
2017-Mar-20 10:33N 52°22' E 006°37'0 0.0
2017-Mar-20 09:33N 52°22' E 006°37'0 0.0
2017-Mar-20 08:33N 52°22' E 006°37'0 0.0
2017-Mar-20 07:33N 52°22' E 006°37'0 0.0
2017-Mar-20 03:13N 52°22' E 006°37'0 0.0
2017-Mar-20 02:33N 52°22' E 006°37'0 0.0
2017-Mar-20 01:33N 52°22' E 006°37'0 0.0
2017-Mar-20 00:33N 52°22' E 006°37'0 0.0
2017-Mar-19 23:33N 52°22' E 006°37'0 0.0
2017-Mar-19 22:33N 52°22' E 006°37'0 0.0
2017-Mar-19 21:33N 52°22' E 006°37'0 0.0
2017-Mar-19 20:33N 52°22' E 006°37'0 0.0
2017-Mar-19 19:33N 52°22' E 006°37'0 0.0
2017-Mar-19 18:33N 52°22' E 006°37'0 0.0
2017-Mar-19 17:33N 52°22' E 006°37'0 0.0
2017-Mar-19 16:33N 52°22' E 006°37'0 0.0
2017-Mar-19 15:33N 52°22' E 006°37'0 0.0
2017-Mar-19 14:33N 52°22' E 006°37'0 0.0
2017-Mar-19 13:33N 52°22' E 006°37'0 0.0
2017-Mar-19 12:33N 52°22' E 006°37'0 0.0
2017-Mar-19 07:16N 52°22' E 006°37'0 0.0
2017-Mar-19 06:33N 52°22' E 006°37'0 0.0
2017-Mar-19 05:33N 52°22' E 006°37'0 0.0
2017-Mar-19 04:33N 52°22' E 006°37'0 0.0
2017-Mar-19 03:33N 52°22' E 006°37'0 0.0
2017-Mar-19 02:33N 52°22' E 006°37'0 0.0
2017-Mar-19 01:33N 52°22' E 006°37'0 0.0
2017-Mar-19 00:33N 52°22' E 006°37'0 0.0
2017-Mar-18 23:33N 52°22' E 006°37'0 0.0
2017-Mar-18 22:33N 52°22' E 006°37'0 0.0
2017-Mar-18 21:34N 52°22' E 006°37'0 0.0
2017-Mar-18 20:33N 52°22' E 006°37'0 0.0
2017-Mar-18 19:33N 52°22' E 006°37'0 0.0
2017-Mar-18 18:33N 52°22' E 006°37'0 0.0
2017-Mar-18 17:33N 52°22' E 006°37'0 0.0
2017-Mar-18 16:33N 52°22' E 006°37'0 0.0
2017-Mar-18 15:33N 52°22' E 006°37'0 0.0
2017-Mar-18 14:34N 52°22' E 006°37'0 0.0
2017-Mar-18 13:33N 52°22' E 006°37'0 0.0
2017-Mar-18 12:33N 52°22' E 006°37'0 0.0
2017-Mar-18 11:33N 52°22' E 006°37'0 0.0
2017-Mar-18 10:33N 52°22' E 006°37'0 0.0
2017-Mar-18 09:33N 52°22' E 006°37'3 3.0
2017-Mar-18 08:33N 52°19' E 006°38'5 4.8
2017-Mar-18 07:33N 52°14' E 006°38'6 5.7
2017-Mar-18 06:31N 52°11' E 006°30'5 5.5
2017-Mar-18 05:33N 52°10' E 006°21'4 3.8
2017-Mar-18 04:33N 52°10' E 006°15'0 0.0
2017-Mar-18 03:32N 52°10' E 006°15'0 0.0
2017-Mar-18 02:33N 52°10' E 006°15'0 0.0
2017-Mar-18 01:33N 52°10' E 006°15'0 0.0
2017-Mar-18 00:33N 52°10' E 006°15'0 0.0
2017-Mar-17 23:33N 52°10' E 006°15'0 0.0
2017-Mar-17 22:33N 52°10' E 006°15'4 1.0
2017-Mar-17 18:32N 52°06' E 006°13'6 6.0
2017-Mar-17 17:33N 52°01' E 006°08'6 5.8
2017-Mar-17 16:33N 51°58' E 005°59'7 6.5
2017-Mar-17 15:33N 51°52' E 006°03'4 3.7
2017-Mar-17 14:33N 51°52' E 005°57'4 3.5
2017-Mar-17 13:33N 51°51' E 005°51'0 0.0
2017-Mar-17 12:33N 51°51' E 005°51'0 0.0
2017-Mar-17 11:33N 51°51' E 005°51'0 0.1
2017-Mar-17 10:33N 51°51' E 005°51'5 4.5
2017-Mar-17 09:33N 51°53' E 005°45'5 5.2
2017-Mar-17 08:33N 51°54' E 005°36'6 5.0
2017-Mar-17 07:24N 51°53' E 005°27'16 1.2
2017-Mar-16 18:26N 51°49' E 005°02'5 5.3
2017-Mar-16 17:33N 51°50' E 004°55'6 5.5
2017-Mar-16 16:34N 51°48' E 004°46'6 6.0
2017-Mar-16 15:33N 51°43' E 004°40'29 4.1
2017-Mar-16 08:33N 51°17' E 004°22'0 0.0
2017-Mar-16 07:33N 51°17' E 004°22'0 0.0
2017-Mar-16 06:34N 51°17' E 004°22'0 0.0
2017-Mar-16 05:33N 51°17' E 004°22'0 0.0
2017-Mar-16 04:34N 51°17' E 004°22'0 0.0
2017-Mar-16 03:34N 51°17' E 004°22'0 0.0
2017-Mar-16 02:33N 51°17' E 004°22'0 0.0
2017-Mar-16 01:33N 51°17' E 004°22'0 0.0
2017-Mar-16 00:34N 51°17' E 004°22'0 0.0
2017-Mar-15 23:34N 51°17' E 004°22'0 0.0
2017-Mar-15 22:33N 51°17' E 004°22'0 0.0
2017-Mar-15 21:34N 51°17' E 004°22'0 0.0
2017-Mar-15 20:33N 51°17' E 004°22'0 0.0
2017-Mar-15 19:34N 51°17' E 004°22'0 0.0
2017-Mar-15 18:33N 51°17' E 004°22'0 0.0
2017-Mar-15 17:33N 51°17' E 004°22'0 0.1
2017-Mar-15 16:34N 51°17' E 004°22'0 0.0
2017-Mar-15 15:34N 51°17' E 004°22'0 0.0
2017-Mar-15 14:33N 51°17' E 004°22'0 0.0
2017-Mar-15 13:33N 51°17' E 004°22'3 3.3
2017-Mar-15 12:32N 51°20' E 004°18'8 7.3
2017-Mar-15 11:27N 51°27' E 004°14'5 5.5
2017-Mar-15 10:32N 51°32' E 004°14'9 6.7
2017-Mar-15 09:15N 51°40' E 004°20'4 4.6
2017-Mar-15 08:24N 51°42' E 004°25'7 7.4
2017-Mar-15 07:31N 51°43' E 004°36'9 9.4
2017-Mar-15 06:33N 51°52' E 004°39'7 6.6
2017-Mar-15 05:33N 51°55' E 004°48'8 8.1
2017-Mar-15 04:33N 51°59' E 004°60'5 4.5
2017-Mar-15 03:33N 52°01' E 005°06'0 0.0
2017-Mar-15 02:33N 52°01' E 005°06'0 0.0
2017-Mar-15 01:33N 52°01' E 005°06'0 0.0
2017-Mar-15 00:33N 52°01' E 005°06'0 0.0
2017-Mar-14 23:33N 52°01' E 005°06'0 0.0
2017-Mar-14 22:33N 52°01' E 005°06'0 0.0
2017-Mar-14 21:33N 52°01' E 005°06'0 0.4
2017-Mar-14 20:33N 52°01' E 005°07'5 4.7
2017-Mar-14 19:33N 52°05' E 005°05'8 7.8
2017-Mar-14 18:33N 52°13' E 005°00'8 8.1
2017-Mar-14 17:33N 52°21' E 004°59'2 2.2
2017-Mar-14 16:34N 52°23' E 004°58'7 6.6
2017-Mar-14 15:33N 52°25' E 005°08'14 7.1
2017-Mar-14 13:33N 52°33' E 005°27'8 8.1
2017-Mar-14 12:33N 52°37' E 005°39'7 7.4
2017-Mar-14 11:33N 52°37' E 005°51'8 7.6
2017-Mar-14 10:33N 52°38' E 006°03'3 3.0
2017-Mar-14 09:33N 52°35' E 006°06'0 0.0
2017-Mar-14 08:33N 52°35' E 006°06'0 0.0
2017-Mar-14 07:33N 52°35' E 006°06'0 0.0
2017-Mar-14 06:33N 52°35' E 006°06'0 0.0
2017-Mar-14 05:33N 52°35' E 006°06'0 0.0
2017-Mar-14 04:33N 52°35' E 006°06'0 0.0
2017-Mar-14 03:33N 52°35' E 006°06'0 0.0
2017-Mar-14 02:32N 52°35' E 006°06'0 0.0
2017-Mar-14 01:33N 52°35' E 006°06'0 0.0
2017-Mar-14 00:33N 52°35' E 006°06'0 0.0
2017-Mar-13 23:33N 52°35' E 006°06'0 0.0
2017-Mar-13 22:33N 52°35' E 006°06'0 0.0
2017-Mar-13 21:33N 52°35' E 006°06'0 0.0
2017-Mar-13 20:33N 52°35' E 006°06'0 0.0
2017-Mar-13 19:33N 52°35' E 006°06'  

Dump ship's entire track history